createdAt,value
2019-02-26T00:00:27.174Z,4.18
2019-02-26T00:01:28.688Z,4.06
2019-02-26T00:02:28.904Z,4.13
2019-02-26T00:03:28.550Z,4.06
2019-02-26T00:04:27.278Z,4.10
2019-02-26T00:05:28.581Z,4.10
2019-02-26T00:06:28.354Z,4.08
2019-02-26T00:07:28.119Z,4.10
2019-02-26T00:08:29.099Z,4.08
2019-02-26T00:09:27.638Z,4.06
2019-02-26T00:10:29.038Z,4.03
2019-02-26T00:11:29.026Z,4.00
2019-02-26T00:12:28.681Z,4.00
2019-02-26T00:13:27.666Z,3.88
2019-02-26T00:14:27.589Z,3.90
2019-02-26T00:15:26.936Z,3.91
2019-02-26T00:16:26.942Z,3.90
2019-02-26T00:17:26.920Z,3.91
2019-02-26T00:18:26.903Z,3.88
2019-02-26T00:19:26.896Z,3.87
2019-02-26T00:20:26.881Z,3.85
2019-02-26T00:21:28.706Z,3.92
2019-02-26T00:22:26.867Z,3.78
2019-02-26T00:23:28.028Z,3.80
2019-02-26T00:24:30.383Z,3.80
2019-02-26T00:25:26.829Z,3.76
2019-02-26T00:26:26.818Z,3.73
2019-02-26T00:27:28.146Z,3.73
2019-02-26T00:28:26.798Z,3.81
2019-02-26T00:29:28.126Z,3.69
2019-02-26T00:30:26.773Z,3.81
2019-02-26T00:31:28.759Z,3.76
2019-02-26T00:32:26.768Z,3.74
2019-02-26T00:33:27.269Z,3.73
2019-02-26T00:34:26.735Z,3.78
2019-02-26T00:35:27.668Z,3.82
2019-02-26T00:36:27.551Z,3.80
2019-02-26T00:37:28.355Z,3.84
2019-02-26T00:38:26.687Z,3.76
2019-02-26T00:39:27.150Z,3.78
2019-02-26T00:40:26.681Z,3.74
2019-02-26T00:41:26.803Z,3.72
2019-02-26T00:42:28.669Z,3.78
2019-02-26T00:43:27.918Z,3.78
2019-02-26T00:44:27.529Z,3.80
2019-02-26T00:45:27.244Z,3.73
2019-02-26T00:46:28.485Z,3.81
2019-02-26T00:47:29.906Z,3.81
2019-02-26T00:48:27.579Z,3.76
2019-02-26T00:49:28.131Z,3.72
2019-02-26T00:50:28.126Z,3.76
2019-02-26T00:51:27.000Z,3.80
2019-02-26T00:52:28.161Z,3.80
2019-02-26T00:53:28.341Z,3.78
2019-02-26T00:54:28.712Z,3.76
2019-02-26T00:55:29.377Z,3.81
2019-02-26T00:56:29.150Z,3.84
2019-02-26T00:57:27.327Z,3.90
2019-02-26T00:58:26.470Z,3.80
2019-02-26T00:59:26.459Z,3.74
2019-02-26T01:00:28.430Z,3.81
2019-02-26T01:01:26.438Z,3.81
2019-02-26T01:02:26.455Z,3.84
2019-02-26T01:03:26.417Z,3.72
2019-02-26T01:04:26.421Z,3.70
2019-02-26T01:05:26.405Z,3.76
2019-02-26T01:06:26.883Z,3.76
2019-02-26T01:07:28.139Z,3.80
2019-02-26T01:08:26.362Z,3.80
2019-02-26T01:09:27.357Z,3.76
2019-02-26T01:10:26.355Z,3.73
2019-02-26T01:11:28.006Z,3.69
2019-02-26T01:12:26.339Z,3.64
2019-02-26T01:13:28.418Z,3.67
2019-02-26T01:14:26.300Z,3.70
2019-02-26T01:15:26.300Z,3.64
2019-02-26T01:16:26.277Z,3.59
2019-02-26T01:17:26.327Z,3.55
2019-02-26T01:18:26.851Z,3.51
2019-02-26T01:19:26.266Z,3.59
2019-02-26T01:20:27.502Z,3.56
2019-02-26T01:21:28.518Z,3.51
2019-02-26T01:22:26.260Z,3.46
2019-02-26T01:23:26.798Z,3.25
2019-02-26T01:24:27.993Z,3.23
2019-02-26T01:25:26.183Z,3.36
2019-02-26T01:26:27.830Z,3.22
2019-02-26T01:27:26.173Z,3.27
2019-02-26T01:28:27.070Z,3.27
2019-02-26T01:29:27.730Z,3.23
2019-02-26T01:30:27.024Z,3.29
2019-02-26T01:31:27.361Z,3.32
2019-02-26T01:32:26.128Z,3.36
2019-02-26T01:33:27.794Z,3.30
2019-02-26T01:34:26.079Z,3.32
2019-02-26T01:35:26.259Z,3.36
2019-02-26T01:36:26.112Z,3.32
2019-02-26T01:37:27.771Z,3.33
2019-02-26T01:38:26.054Z,3.36
2019-02-26T01:39:26.026Z,3.37
2019-02-26T01:40:26.015Z,3.35
2019-02-26T01:41:27.325Z,3.32
2019-02-26T01:42:27.173Z,3.45
2019-02-26T01:43:26.000Z,3.42
2019-02-26T01:44:28.031Z,3.44
2019-02-26T01:45:27.221Z,3.42
2019-02-26T01:46:25.948Z,3.30
2019-02-26T01:47:26.300Z,3.32
2019-02-26T01:48:25.947Z,3.37
2019-02-26T01:49:27.988Z,3.29
2019-02-26T01:50:25.906Z,3.33
2019-02-26T01:51:26.670Z,3.46
2019-02-26T01:52:25.886Z,3.37
2019-02-26T01:53:27.360Z,3.33
2019-02-26T01:54:25.863Z,3.42
2019-02-26T01:55:27.621Z,3.30
2019-02-26T01:56:25.840Z,3.22
2019-02-26T01:57:27.686Z,3.26
2019-02-26T01:58:25.836Z,3.14
2019-02-26T01:59:25.810Z,3.11
2019-02-26T02:00:26.079Z,3.11
2019-02-26T02:01:26.242Z,3.04
2019-02-26T02:02:27.759Z,3.08
2019-02-26T02:03:27.821Z,3.12
2019-02-26T02:04:25.756Z,3.12
2019-02-26T02:05:28.571Z,3.11
2019-02-26T02:06:25.733Z,3.05
2019-02-26T02:07:27.775Z,3.07
2019-02-26T02:08:25.735Z,3.15
2019-02-26T02:09:25.701Z,3.15
2019-02-26T02:10:25.691Z,2.96
2019-02-26T02:11:28.270Z,2.99
2019-02-26T02:12:27.788Z,3.07
2019-02-26T02:13:28.249Z,3.05
2019-02-26T02:14:25.658Z,2.96
2019-02-26T02:15:25.641Z,2.94
2019-02-26T02:16:27.269Z,2.99
2019-02-26T02:17:25.619Z,2.97
2019-02-26T02:18:27.591Z,3.07
2019-02-26T02:19:27.424Z,3.07
2019-02-26T02:20:25.582Z,3.12
2019-02-26T02:21:26.003Z,3.15
2019-02-26T02:22:25.564Z,3.04
2019-02-26T02:23:26.224Z,3.02
2019-02-26T02:24:25.538Z,3.08
2019-02-26T02:25:29.006Z,3.04
2019-02-26T02:26:26.533Z,3.20
2019-02-26T02:27:28.139Z,3.07
2019-02-26T02:28:26.307Z,3.11
2019-02-26T02:29:28.065Z,3.15
2019-02-26T02:30:30.245Z,3.05
2019-02-26T02:31:28.081Z,3.02
2019-02-26T02:32:26.620Z,3.08
2019-02-26T02:33:28.957Z,2.97
2019-02-26T02:34:28.911Z,3.14
2019-02-26T02:35:25.417Z,3.05
2019-02-26T02:36:26.387Z,3.12
2019-02-26T02:37:26.858Z,3.05
2019-02-26T02:38:25.386Z,3.02
2019-02-26T02:39:26.444Z,3.02
2019-02-26T02:40:25.376Z,3.02
2019-02-26T02:41:25.354Z,3.02
2019-02-26T02:42:25.344Z,2.93
2019-02-26T02:43:25.335Z,3.00
2019-02-26T02:44:25.633Z,2.90
2019-02-26T02:45:25.308Z,2.90
2019-02-26T02:46:25.302Z,2.90
2019-02-26T02:47:27.792Z,2.96
2019-02-26T02:48:25.278Z,2.97
2019-02-26T02:49:25.280Z,2.93
2019-02-26T02:50:25.256Z,2.93
2019-02-26T02:51:25.745Z,2.97
2019-02-26T02:52:27.053Z,2.97
2019-02-26T02:53:27.272Z,2.87
2019-02-26T02:54:26.168Z,2.96
2019-02-26T02:55:25.200Z,2.90
2019-02-26T02:56:25.191Z,2.93
2019-02-26T02:57:26.938Z,2.96
2019-02-26T02:58:26.073Z,2.91
2019-02-26T02:59:25.189Z,2.91
2019-02-26T03:00:26.549Z,2.87
2019-02-26T03:01:28.654Z,2.90
2019-02-26T03:02:25.125Z,2.87
2019-02-26T03:03:25.115Z,2.93
2019-02-26T03:04:26.049Z,2.93
2019-02-26T03:05:25.095Z,2.97
2019-02-26T03:06:29.525Z,2.90
2019-02-26T03:07:27.496Z,2.93
2019-02-26T03:08:25.057Z,2.93
2019-02-26T03:09:25.070Z,2.87
2019-02-26T03:10:28.408Z,2.76
2019-02-26T03:11:25.051Z,2.82
2019-02-26T03:12:25.014Z,2.75
2019-02-26T03:13:26.010Z,2.81
2019-02-26T03:14:25.027Z,2.81
2019-02-26T03:15:27.225Z,2.86
2019-02-26T03:16:27.039Z,2.86
2019-02-26T03:17:24.968Z,2.76
2019-02-26T03:18:24.953Z,2.76
2019-02-26T03:19:24.997Z,2.82
2019-02-26T03:20:27.668Z,2.78
2019-02-26T03:21:27.718Z,2.76
2019-02-26T03:22:24.931Z,2.79
2019-02-26T03:23:24.945Z,2.76
2019-02-26T03:24:26.308Z,2.76
2019-02-26T03:25:27.012Z,2.78
2019-02-26T03:26:25.937Z,2.72
2019-02-26T03:27:27.795Z,2.81
2019-02-26T03:28:24.904Z,2.72
2019-02-26T03:29:24.850Z,2.82
2019-02-26T03:30:36.909Z,2.81
2019-02-26T03:31:33.707Z,2.75
2019-02-26T03:32:24.804Z,2.71
2019-02-26T03:33:24.812Z,2.79
2019-02-26T03:34:25.515Z,2.68
2019-02-26T03:35:24.765Z,2.61
2019-02-26T03:36:24.761Z,2.65
2019-02-26T03:37:25.853Z,2.53
2019-02-26T03:38:26.849Z,2.58
2019-02-26T03:39:24.741Z,2.57
2019-02-26T03:40:27.298Z,2.50
2019-02-26T03:41:26.145Z,2.47
2019-02-26T03:42:24.710Z,2.48
2019-02-26T03:43:24.695Z,2.42
2019-02-26T03:44:24.690Z,2.42
2019-02-26T03:45:25.227Z,2.54
2019-02-26T03:46:24.648Z,2.42
2019-02-26T03:47:24.634Z,2.43
2019-02-26T03:48:24.629Z,2.50
2019-02-26T03:49:27.097Z,2.42
2019-02-26T03:50:27.122Z,2.43
2019-02-26T03:51:24.595Z,2.40
2019-02-26T03:52:24.581Z,2.51
2019-02-26T03:53:28.052Z,2.47
2019-02-26T03:54:24.611Z,2.53
2019-02-26T03:55:24.550Z,2.50
2019-02-26T03:56:24.539Z,2.53
2019-02-26T03:57:24.858Z,2.53
2019-02-26T03:58:24.517Z,2.63
2019-02-26T03:59:24.521Z,2.65
2019-02-26T04:00:24.492Z,2.65
2019-02-26T04:01:24.485Z,2.65
2019-02-26T04:02:24.475Z,2.68
2019-02-26T04:03:24.460Z,2.60
2019-02-26T04:04:26.142Z,2.71
2019-02-26T04:05:24.445Z,2.54
2019-02-26T04:06:24.437Z,2.57
2019-02-26T04:07:26.016Z,2.54
2019-02-26T04:08:26.904Z,2.45
2019-02-26T04:09:24.394Z,2.40
2019-02-26T04:10:24.406Z,2.40
2019-02-26T04:11:25.602Z,2.45
2019-02-26T04:12:24.363Z,2.40
2019-02-26T04:13:24.353Z,2.35
2019-02-26T04:14:26.389Z,2.40
2019-02-26T04:15:27.113Z,2.37
2019-02-26T04:16:24.318Z,2.29
2019-02-26T04:17:27.949Z,2.28
2019-02-26T04:18:24.296Z,2.30
2019-02-26T04:19:26.790Z,2.29
2019-02-26T04:20:26.935Z,2.30
2019-02-26T04:21:24.264Z,2.28
2019-02-26T04:22:26.427Z,2.24
2019-02-26T04:23:24.250Z,2.30
2019-02-26T04:24:25.888Z,2.28
2019-02-26T04:25:27.006Z,2.25
2019-02-26T04:26:26.183Z,2.24
2019-02-26T04:27:24.201Z,2.17
2019-02-26T04:28:27.227Z,2.28
2019-02-26T04:29:24.182Z,2.18
2019-02-26T04:30:24.210Z,2.19
2019-02-26T04:31:24.157Z,2.15
2019-02-26T04:32:24.147Z,2.15
2019-02-26T04:33:24.139Z,2.17
2019-02-26T04:34:24.125Z,2.14
2019-02-26T04:35:24.130Z,2.14
2019-02-26T04:36:24.104Z,2.21
2019-02-26T04:37:24.795Z,2.19
2019-02-26T04:38:26.703Z,2.18
2019-02-26T04:39:24.156Z,2.12
2019-02-26T04:40:27.217Z,2.21
2019-02-26T04:41:24.050Z,2.18
2019-02-26T04:42:24.037Z,2.25
2019-02-26T04:43:25.564Z,2.19
2019-02-26T04:44:26.386Z,2.19
2019-02-26T04:45:24.033Z,2.28
2019-02-26T04:46:25.626Z,2.25
2019-02-26T04:47:25.064Z,2.12
2019-02-26T04:48:26.961Z,2.32
2019-02-26T04:49:27.120Z,2.28
2019-02-26T04:50:28.725Z,2.25
2019-02-26T04:51:24.052Z,2.15
2019-02-26T04:52:23.929Z,2.17
2019-02-26T04:53:25.819Z,2.21
2019-02-26T04:54:26.356Z,2.06
2019-02-26T04:55:23.920Z,2.21
2019-02-26T04:56:23.888Z,2.10
2019-02-26T04:57:23.889Z,2.04
2019-02-26T04:58:23.863Z,1.99
2019-02-26T04:59:23.850Z,1.92
2019-02-26T05:00:27.025Z,2.00
2019-02-26T05:01:23.875Z,1.91
2019-02-26T05:02:23.820Z,1.93
2019-02-26T05:03:23.808Z,1.93
2019-02-26T05:04:23.840Z,1.92
2019-02-26T05:05:25.876Z,1.92
2019-02-26T05:06:23.806Z,2.01
2019-02-26T05:07:23.769Z,1.92
2019-02-26T05:08:23.757Z,2.01
2019-02-26T05:09:24.728Z,1.99
2019-02-26T05:10:26.463Z,2.00
2019-02-26T05:11:31.765Z,2.00
2019-02-26T05:12:25.455Z,1.91
2019-02-26T05:13:25.212Z,1.93
2019-02-26T05:14:23.729Z,1.85
2019-02-26T05:15:26.400Z,1.87
2019-02-26T05:16:26.634Z,1.92
2019-02-26T05:17:26.432Z,2.04
2019-02-26T05:18:25.822Z,1.95
2019-02-26T05:19:24.365Z,2.10
2019-02-26T05:20:23.629Z,1.95
2019-02-26T05:21:24.473Z,1.89
2019-02-26T05:22:25.597Z,2.10
2019-02-26T05:23:25.912Z,2.04
2019-02-26T05:24:25.835Z,2.01
2019-02-26T05:25:23.568Z,1.99
2019-02-26T05:26:23.577Z,1.91
2019-02-26T05:27:24.948Z,2.11
2019-02-26T05:28:23.536Z,1.93
2019-02-26T05:29:23.531Z,2.03
2019-02-26T05:30:23.648Z,2.03
2019-02-26T05:31:23.524Z,2.04
2019-02-26T05:32:25.039Z,2.03
2019-02-26T05:33:25.285Z,1.80
2019-02-26T05:34:25.849Z,2.00
2019-02-26T05:35:25.330Z,1.95
2019-02-26T05:36:23.481Z,1.92
2019-02-26T05:37:23.437Z,2.00
2019-02-26T05:38:24.095Z,1.91
2019-02-26T05:39:24.245Z,2.00
2019-02-26T05:40:23.408Z,1.99
2019-02-26T05:41:23.423Z,2.03
2019-02-26T05:42:23.387Z,1.92
2019-02-26T05:43:25.750Z,2.00
2019-02-26T05:44:23.363Z,1.99
2019-02-26T05:45:23.871Z,1.95
2019-02-26T05:46:26.389Z,1.99
2019-02-26T05:47:24.033Z,1.93
2019-02-26T05:48:25.779Z,1.91
2019-02-26T05:49:23.351Z,1.92
2019-02-26T05:50:23.299Z,2.00
2019-02-26T05:51:24.507Z,1.97
2019-02-26T05:52:24.369Z,2.00
2019-02-26T05:53:23.268Z,2.03
2019-02-26T05:54:24.488Z,1.93
2019-02-26T05:55:25.487Z,2.00
2019-02-26T05:56:23.257Z,2.01
2019-02-26T05:57:27.759Z,1.99
2019-02-26T05:58:23.220Z,2.01
2019-02-26T05:59:23.345Z,2.07
2019-02-26T06:00:26.319Z,2.15
2019-02-26T06:01:24.949Z,2.00
2019-02-26T06:02:24.667Z,2.06
2019-02-26T06:03:23.166Z,2.03
2019-02-26T06:04:23.197Z,2.10
2019-02-26T06:05:25.960Z,2.03
2019-02-26T06:06:23.275Z,1.91
2019-02-26T06:07:27.033Z,1.95
2019-02-26T06:08:25.610Z,1.95
2019-02-26T06:09:25.479Z,1.97
2019-02-26T06:10:24.610Z,1.93
2019-02-26T06:11:23.066Z,1.93
2019-02-26T06:12:23.238Z,1.99
2019-02-26T06:13:23.143Z,1.97
2019-02-26T06:14:25.475Z,1.80
2019-02-26T06:15:25.711Z,1.97
2019-02-26T06:16:24.467Z,2.00
2019-02-26T06:17:23.173Z,2.03
2019-02-26T06:18:22.989Z,1.93
2019-02-26T06:19:22.978Z,1.97
2019-02-26T06:20:23.640Z,2.01
2019-02-26T06:21:23.501Z,1.95
2019-02-26T06:22:26.047Z,2.01
2019-02-26T06:23:23.231Z,1.99
2019-02-26T06:24:24.821Z,1.95
2019-02-26T06:25:24.438Z,2.03
2019-02-26T06:26:22.906Z,2.03
2019-02-26T06:27:25.225Z,2.00
2019-02-26T06:28:22.882Z,1.93
2019-02-26T06:29:24.728Z,1.89
2019-02-26T06:34:21.231Z,1.82
2019-02-26T06:35:01.566Z,1.77
2019-02-26T06:36:01.754Z,1.78
2019-02-26T06:37:00.537Z,1.84
2019-02-26T06:38:02.099Z,1.77
2019-02-26T06:39:01.514Z,1.81
2019-02-26T06:40:02.483Z,1.80
2019-02-26T06:41:00.494Z,1.81
2019-02-26T06:42:00.484Z,1.74
2019-02-26T06:43:00.507Z,1.74
2019-02-26T06:44:00.471Z,1.71
2019-02-26T06:45:00.454Z,1.74
2019-02-26T06:46:02.586Z,1.73
2019-02-26T06:47:02.492Z,1.77
2019-02-26T06:48:00.460Z,1.73
2019-02-26T06:49:08.953Z,1.75
2019-02-26T06:50:02.770Z,1.75
2019-02-26T06:51:08.634Z,1.74
2019-02-26T06:52:00.377Z,1.75
2019-02-26T06:53:04.410Z,1.78
2019-02-26T06:54:01.076Z,1.74
2019-02-26T06:55:02.888Z,1.84
2019-02-26T06:56:00.846Z,1.85
2019-02-26T06:57:00.325Z,1.67
2019-02-26T06:58:00.328Z,1.85
2019-02-26T06:59:00.729Z,1.91
2019-02-26T07:00:01.171Z,1.85
2019-02-26T07:01:00.281Z,1.99
2019-02-26T07:02:00.267Z,2.00
2019-02-26T07:03:02.629Z,2.06
2019-02-26T07:04:00.251Z,2.01
2019-02-26T07:05:00.255Z,1.93
2019-02-26T07:06:03.209Z,2.10
2019-02-26T07:07:01.919Z,2.04
2019-02-26T07:08:02.033Z,2.10
2019-02-26T07:09:00.196Z,2.12
2019-02-26T07:10:00.241Z,2.22
2019-02-26T07:11:00.167Z,2.14
2019-02-26T07:12:00.159Z,2.22
2019-02-26T07:13:02.054Z,2.32
2019-02-26T07:14:01.311Z,2.30
2019-02-26T07:15:00.245Z,2.22
2019-02-26T07:16:00.113Z,2.21
2019-02-26T07:17:00.100Z,2.28
2019-02-26T07:18:04.335Z,2.33
2019-02-26T07:19:01.121Z,2.33
2019-02-26T07:20:00.878Z,2.47
2019-02-26T07:21:00.349Z,2.51
2019-02-26T07:22:00.045Z,2.57
2019-02-26T07:23:00.100Z,2.51
2019-02-26T07:24:01.191Z,2.53
2019-02-26T07:25:00.015Z,2.68
2019-02-26T07:26:00.003Z,2.81
2019-02-26T07:27:01.975Z,2.78
2019-02-26T07:28:01.202Z,2.82
2019-02-26T07:28:59.994Z,2.91
2019-02-26T07:29:59.964Z,2.91
2019-02-26T07:31:02.487Z,2.94
2019-02-26T07:31:59.951Z,2.94
2019-02-26T07:32:59.932Z,2.96
2019-02-26T07:34:01.385Z,3.00
2019-02-26T07:34:59.904Z,3.12
2019-02-26T07:36:01.776Z,3.18
2019-02-26T07:36:59.882Z,3.15
2019-02-26T07:38:01.323Z,3.25
2019-02-26T07:38:59.881Z,3.17
2019-02-26T07:39:59.859Z,3.18
2019-02-26T07:41:01.915Z,3.36
2019-02-26T07:41:59.828Z,3.42
2019-02-26T07:42:59.832Z,3.45
2019-02-26T07:44:00.071Z,3.60
2019-02-26T07:44:59.792Z,3.59
2019-02-26T07:45:59.782Z,3.66
2019-02-26T07:47:00.922Z,3.81
2019-02-26T07:48:00.973Z,3.90
2019-02-26T07:49:01.927Z,4.02
2019-02-26T07:50:01.625Z,4.02
2019-02-26T07:50:59.735Z,4.24
2019-02-26T07:52:00.339Z,4.35
2019-02-26T07:52:59.707Z,4.54
2019-02-26T07:54:00.718Z,4.59
2019-02-26T07:54:59.691Z,4.64
2019-02-26T07:56:01.766Z,4.79
2019-02-26T07:57:00.592Z,5.00
2019-02-26T07:57:59.655Z,5.04
2019-02-26T07:59:03.770Z,5.27
2019-02-26T07:59:59.628Z,5.32
2019-02-26T08:00:59.621Z,5.43
2019-02-26T08:02:01.368Z,5.59
2019-02-26T08:03:00.150Z,5.79
2019-02-26T08:03:59.619Z,5.93
2019-02-26T08:04:59.578Z,6.03
2019-02-26T08:06:04.094Z,6.13
2019-02-26T08:07:01.336Z,6.31
2019-02-26T08:07:59.553Z,6.40
2019-02-26T08:08:59.549Z,6.56
2019-02-26T08:09:59.541Z,6.65
2019-02-26T08:10:59.510Z,6.88
2019-02-26T08:12:01.462Z,6.93
2019-02-26T08:13:01.536Z,7.28
2019-02-26T08:14:01.473Z,7.34
2019-02-26T08:14:59.458Z,7.57
2019-02-26T08:16:00.109Z,7.60
2019-02-26T08:17:01.297Z,7.76
2019-02-26T08:18:01.290Z,7.86
2019-02-26T08:19:01.314Z,8.13
2019-02-26T08:20:01.675Z,8.23
2019-02-26T08:21:00.758Z,8.29
2019-02-26T08:21:59.402Z,8.60
2019-02-26T08:23:01.308Z,8.71
2019-02-26T08:23:59.377Z,8.81
2019-02-26T08:24:59.374Z,8.98
2019-02-26T08:26:00.533Z,9.22
2019-02-26T08:27:01.420Z,9.34
2019-02-26T08:28:01.293Z,9.55
2019-02-26T08:29:00.202Z,9.60
2019-02-26T08:30:00.899Z,9.78
2019-02-26T08:30:59.278Z,9.99
2019-02-26T08:32:01.199Z,10.05
2019-02-26T08:33:02.072Z,10.24
2019-02-26T08:33:59.285Z,10.36
2019-02-26T08:34:59.993Z,10.57
2019-02-26T08:35:59.223Z,10.73
2019-02-26T08:36:59.215Z,10.86
2019-02-26T08:37:59.206Z,11.05
2019-02-26T08:38:59.254Z,11.18
2019-02-26T08:39:59.182Z,11.34
2019-02-26T08:40:59.167Z,11.45
2019-02-26T08:41:59.203Z,11.52
2019-02-26T08:42:59.148Z,11.69
2019-02-26T08:43:59.140Z,11.80
2019-02-26T08:44:59.144Z,11.82
2019-02-26T08:45:59.124Z,11.88
2019-02-26T08:46:59.111Z,11.97
2019-02-26T08:47:59.088Z,12.05
2019-02-26T08:49:07.866Z,11.99
2019-02-26T08:50:01.266Z,12.04
2019-02-26T08:51:03.354Z,12.10
2019-02-26T08:51:59.047Z,12.04
2019-02-26T08:52:59.046Z,12.05
2019-02-26T08:53:59.040Z,12.13
2019-02-26T08:54:59.034Z,12.28
2019-02-26T08:56:01.419Z,12.43
2019-02-26T08:56:59.025Z,12.43
2019-02-26T08:57:58.995Z,12.58
2019-02-26T08:59:00.842Z,12.73
2019-02-26T08:59:58.977Z,13.04
2019-02-26T09:00:58.944Z,13.01
2019-02-26T09:01:58.941Z,12.95
2019-02-26T09:02:58.932Z,12.79
2019-02-26T09:04:00.761Z,12.53
2019-02-26T09:04:59.752Z,12.46
2019-02-26T09:06:12.442Z,12.55
2019-02-26T09:07:00.265Z,12.77
2019-02-26T09:07:58.885Z,13.06
2019-02-26T09:09:00.172Z,13.38
2019-02-26T09:09:58.891Z,13.65
2019-02-26T09:11:00.743Z,13.97
2019-02-26T09:12:00.635Z,14.26
2019-02-26T09:12:58.818Z,14.30
2019-02-26T09:13:59.578Z,14.53
2019-02-26T09:14:58.826Z,14.96
2019-02-26T09:16:01.059Z,15.12
2019-02-26T09:16:59.621Z,15.26
2019-02-26T09:17:58.791Z,15.47
2019-02-26T09:18:58.778Z,15.41
2019-02-26T09:20:08.482Z,15.72
2019-02-26T09:20:58.731Z,15.91
2019-02-26T09:21:58.762Z,16.13
2019-02-26T09:22:59.663Z,16.13
2019-02-26T09:24:00.015Z,16.33
2019-02-26T09:24:59.906Z,16.62
2019-02-26T09:26:00.383Z,16.91
2019-02-26T09:27:00.472Z,17.02
2019-02-26T09:27:58.656Z,17.01
2019-02-26T09:28:58.652Z,17.02
2019-02-26T09:29:58.650Z,17.14
2019-02-26T09:31:01.295Z,17.24
2019-02-26T09:31:58.611Z,17.56
2019-02-26T09:33:00.849Z,17.96
2019-02-26T09:33:58.588Z,18.09
2019-02-26T09:34:59.249Z,18.52
2019-02-26T09:35:58.617Z,18.71
2019-02-26T09:37:00.510Z,18.94
2019-02-26T09:38:00.899Z,19.04
2019-02-26T09:38:58.538Z,19.24
2019-02-26T09:39:59.248Z,19.31
2019-02-26T09:40:58.529Z,19.62
2019-02-26T09:41:59.440Z,19.70
2019-02-26T09:43:00.104Z,19.72
2019-02-26T09:43:59.360Z,19.54
2019-02-26T09:45:00.207Z,19.97
2019-02-26T09:45:58.476Z,20.15
2019-02-26T09:47:00.590Z,20.44
2019-02-26T09:47:58.453Z,20.55
2019-02-26T09:49:00.346Z,20.46
2019-02-26T09:49:58.521Z,20.60
2019-02-26T09:50:58.432Z,20.44
2019-02-26T09:51:59.063Z,20.55
2019-02-26T09:52:59.224Z,20.61
2019-02-26T09:53:58.966Z,21.05
2019-02-26T09:54:58.363Z,21.23
2019-02-26T09:55:58.378Z,21.22
2019-02-26T09:56:58.335Z,21.14
2019-02-26T09:57:58.329Z,21.37
2019-02-26T09:58:58.341Z,21.50
2019-02-26T10:00:00.252Z,21.62
2019-02-26T10:00:58.309Z,21.88
2019-02-26T10:01:58.936Z,22.15
2019-02-26T10:02:58.296Z,22.37
2019-02-26T10:04:00.802Z,22.44
2019-02-26T10:04:58.248Z,22.56
2019-02-26T10:05:58.269Z,22.66
2019-02-26T10:06:58.245Z,22.44
2019-02-26T10:08:00.490Z,22.51
2019-02-26T10:08:58.208Z,22.59
2019-02-26T10:09:59.848Z,22.73
2019-02-26T10:11:00.211Z,22.61
2019-02-26T10:11:58.169Z,22.67
2019-02-26T10:13:01.462Z,22.76
2019-02-26T10:13:58.171Z,22.71
2019-02-26T10:15:00.151Z,22.85
2019-02-26T10:15:59.292Z,23.17
2019-02-26T10:16:58.138Z,23.33
2019-02-26T10:17:59.576Z,23.36
2019-02-26T10:18:58.110Z,23.48
2019-02-26T10:19:59.373Z,23.37
2019-02-26T10:20:58.110Z,23.55
2019-02-26T10:22:00.033Z,23.39
2019-02-26T10:23:00.746Z,23.46
2019-02-26T10:23:59.433Z,23.73
2019-02-26T10:24:58.039Z,24.21
2019-02-26T10:26:00.185Z,24.34
2019-02-26T10:27:00.793Z,24.60
2019-02-26T10:28:03.126Z,25.06
2019-02-26T10:29:04.210Z,25.14
2019-02-26T10:29:57.983Z,24.47
2019-02-26T10:31:03.864Z,24.37
2019-02-26T10:31:57.976Z,24.62
2019-02-26T10:33:01.842Z,24.60
2019-02-26T10:33:57.948Z,24.56
2019-02-26T10:34:57.932Z,24.51
2019-02-26T10:35:57.960Z,24.34
2019-02-26T10:36:57.907Z,24.56
2019-02-26T10:38:00.446Z,24.71
2019-02-26T10:39:00.250Z,25.01
2019-02-26T10:39:57.907Z,25.04
2019-02-26T10:40:59.748Z,25.27
2019-02-26T10:42:01.941Z,25.52
2019-02-26T10:42:57.861Z,25.70
2019-02-26T10:43:57.835Z,25.41
2019-02-26T10:44:57.827Z,25.21
2019-02-26T10:45:57.873Z,24.90
2019-02-26T10:46:58.928Z,24.97
2019-02-26T10:48:00.961Z,24.89
2019-02-26T10:48:57.789Z,24.58
2019-02-26T10:49:57.807Z,24.89
2019-02-26T10:50:57.778Z,25.08
2019-02-26T10:51:58.632Z,25.28
2019-02-26T10:53:05.705Z,25.45
2019-02-26T10:53:59.945Z,25.67
2019-02-26T10:54:57.747Z,25.89
2019-02-26T10:55:57.718Z,25.46
2019-02-26T10:57:00.183Z,25.49
2019-02-26T10:57:58.700Z,25.64
2019-02-26T10:59:02.770Z,25.15
2019-02-26T10:59:59.527Z,25.28
2019-02-26T11:00:59.431Z,25.61
2019-02-26T11:02:00.159Z,26.00
2019-02-26T11:02:57.658Z,26.12
2019-02-26T11:03:57.652Z,26.27
2019-02-26T11:04:57.758Z,26.42
2019-02-26T11:05:57.613Z,26.43
2019-02-26T11:06:59.403Z,25.88
2019-02-26T11:07:59.729Z,26.01
2019-02-26T11:08:59.294Z,26.07
2019-02-26T11:09:58.835Z,26.07
2019-02-26T11:10:57.593Z,26.27
2019-02-26T11:12:00.041Z,26.20
2019-02-26T11:12:59.496Z,26.38
2019-02-26T11:13:57.562Z,26.41
2019-02-26T11:14:58.638Z,26.30
2019-02-26T11:15:59.828Z,25.85
2019-02-26T11:16:58.567Z,25.52
2019-02-26T11:17:57.491Z,25.28
2019-02-26T11:18:59.334Z,25.12
2019-02-26T11:19:58.523Z,24.76
2019-02-26T11:20:59.283Z,24.10
2019-02-26T11:21:58.661Z,23.07
2019-02-26T11:22:57.441Z,22.21
2019-02-26T11:23:58.474Z,21.26
2019-02-26T11:24:58.565Z,21.04
2019-02-26T11:25:57.411Z,20.85
2019-02-26T11:26:57.439Z,20.67
2019-02-26T11:27:57.389Z,20.68
2019-02-26T11:28:57.410Z,20.64
2019-02-26T11:29:59.462Z,20.90
2019-02-26T11:30:57.377Z,21.08
2019-02-26T11:31:57.376Z,21.34
2019-02-26T11:33:02.098Z,21.60
2019-02-26T11:34:00.884Z,21.88
2019-02-26T11:34:58.115Z,22.30
2019-02-26T11:35:59.541Z,22.67
2019-02-26T11:36:58.571Z,23.11
2019-02-26T11:37:58.080Z,23.39
2019-02-26T11:38:59.922Z,23.71
2019-02-26T11:39:58.249Z,23.89
2019-02-26T11:40:57.254Z,24.15
2019-02-26T11:42:00.763Z,24.21
2019-02-26T11:42:59.662Z,24.56
2019-02-26T11:43:57.250Z,25.03
2019-02-26T11:44:57.245Z,25.46
2019-02-26T11:45:59.095Z,25.85
2019-02-26T11:46:57.233Z,26.27
2019-02-26T11:47:58.183Z,26.79
2019-02-26T11:48:57.561Z,27.31
2019-02-26T11:49:59.506Z,28.00
2019-02-26T11:51:00.810Z,28.46
2019-02-26T11:51:57.162Z,29.02
2019-02-26T11:52:57.164Z,29.59
2019-02-26T11:53:57.120Z,30.17
2019-02-26T11:54:58.891Z,30.58
2019-02-26T11:55:59.159Z,30.86
2019-02-26T11:56:57.102Z,31.24
2019-02-26T11:57:57.089Z,31.54
2019-02-26T11:58:57.057Z,31.81
2019-02-26T11:59:57.655Z,32.13
2019-02-26T12:00:57.446Z,32.43
2019-02-26T12:01:58.941Z,32.70
2019-02-26T12:02:57.074Z,32.57
2019-02-26T12:04:03.234Z,32.51
2019-02-26T12:04:59.965Z,32.70
2019-02-26T12:06:00.582Z,33.07
2019-02-26T12:06:58.531Z,33.33
2019-02-26T12:07:58.810Z,33.73
2019-02-26T12:08:56.954Z,33.91
2019-02-26T12:09:57.867Z,34.07
2019-02-26T12:11:01.084Z,34.25
2019-02-26T12:11:58.588Z,34.41
2019-02-26T12:12:59.410Z,34.55
2019-02-26T12:13:56.909Z,34.76
2019-02-26T12:14:56.937Z,34.78
2019-02-26T12:15:56.896Z,34.90
2019-02-26T12:16:56.903Z,34.99
2019-02-26T12:17:58.785Z,35.10
2019-02-26T12:18:58.850Z,34.87
2019-02-26T12:19:58.039Z,34.66
2019-02-26T12:20:56.846Z,34.80
2019-02-26T12:21:57.500Z,34.83
2019-02-26T12:22:56.836Z,35.09
2019-02-26T12:23:57.992Z,35.19
2019-02-26T12:24:58.888Z,35.41
2019-02-26T12:25:59.219Z,35.47
2019-02-26T12:26:56.774Z,35.23
2019-02-26T12:27:56.798Z,35.02
2019-02-26T12:28:57.752Z,34.97
2019-02-26T12:29:56.748Z,34.76
2019-02-26T12:30:58.612Z,34.76
2019-02-26T12:31:58.241Z,34.75
2019-02-26T12:32:56.759Z,34.41
2019-02-26T12:33:56.715Z,33.97
2019-02-26T12:34:56.795Z,33.19
2019-02-26T12:35:59.192Z,32.91
2019-02-26T12:37:02.044Z,32.94
2019-02-26T12:38:01.378Z,33.16
2019-02-26T12:38:59.946Z,33.35
2019-02-26T12:39:57.915Z,33.55
2019-02-26T12:40:56.676Z,33.73
2019-02-26T12:41:56.639Z,33.76
2019-02-26T12:42:56.617Z,33.78
2019-02-26T12:43:59.393Z,33.69
2019-02-26T12:44:57.434Z,33.57
2019-02-26T12:46:08.303Z,33.27
2019-02-26T12:46:57.552Z,33.09
2019-02-26T12:47:56.579Z,32.94
2019-02-26T12:48:56.572Z,32.91
2019-02-26T12:49:58.568Z,32.69
2019-02-26T12:50:58.397Z,32.53
2019-02-26T12:51:57.643Z,32.26
2019-02-26T12:52:57.197Z,32.16
2019-02-26T12:53:56.521Z,32.08
2019-02-26T12:55:08.064Z,32.08
2019-02-26T12:55:57.468Z,32.11
2019-02-26T12:56:57.766Z,32.02
2019-02-26T12:57:59.460Z,31.99
2019-02-26T12:58:56.501Z,31.76
2019-02-26T12:59:56.469Z,31.71
2019-02-26T13:00:56.433Z,31.52
2019-02-26T13:01:56.492Z,31.38
2019-02-26T13:02:56.415Z,31.04
2019-02-26T13:03:56.420Z,30.88
2019-02-26T13:04:56.445Z,30.77
2019-02-26T13:05:56.447Z,30.36
2019-02-26T13:06:56.386Z,30.11
2019-02-26T13:07:56.371Z,30.05
2019-02-26T13:08:56.423Z,29.87
2019-02-26T13:10:02.662Z,29.68
2019-02-26T13:10:58.457Z,29.63
2019-02-26T13:12:02.465Z,29.47
2019-02-26T13:13:00.120Z,29.40